METAR Data

Data at: 1229 UTC 24 May 2022

METAR for:CYFC (Fredericton Intl, NB, CA)
Text:CYFC 241200Z AUTO 07003KT 350V090 9SM CLR 11/02 A3038 RMK SLP290
Temperature: 11.0°C ( 52°F)
Dewpoint: 2.0°C ( 36°F) [RH = 54%]
Pressure (altimeter):30.38 inches Hg (1028.9 mb) [Sea level pressure: 1029.0 mb]
Winds:from the ENE (70 degrees) at 3 MPH (3 knots; 1.5 m/s)
Visibility: 9 sm ( 14 km)
Ceiling:at least 12,000 feet AGL
Clouds:sky clear below 12,000 feet AGL